sensor_id;sensor_type;location;lat;lon;timestamp;P1;durP1;ratioP1;P2;durP2;ratioP2
18544;SDS011;9402;51.460;7.276;2022-07-29T00:02:00;7.30;;;1.27;;
18544;SDS011;9402;51.460;7.276;2022-07-29T00:04:02;2.07;;;1.47;;
18544;SDS011;9402;51.460;7.276;2022-07-29T00:06:05;1.13;;;1.00;;
18544;SDS011;9402;51.460;7.276;2022-07-29T00:08:07;1.30;;;0.90;;
18544;SDS011;9402;51.460;7.276;2022-07-29T00:10:09;2.03;;;1.00;;
18544;SDS011;9402;51.460;7.276;2022-07-29T00:12:12;1.33;;;0.87;;
18544;SDS011;9402;51.460;7.276;2022-07-29T00:14:14;3.23;;;1.43;;
18544;SDS011;9402;51.460;7.276;2022-07-29T00:16:18;1.87;;;1.00;;
18544;SDS011;9402;51.460;7.276;2022-07-29T00:18:20;1.93;;;1.00;;
18544;SDS011;9402;51.460;7.276;2022-07-29T00:20:22;2.90;;;1.10;;
18544;SDS011;9402;51.460;7.276;2022-07-29T00:22:25;2.80;;;1.23;;
18544;SDS011;9402;51.460;7.276;2022-07-29T00:24:27;6.17;;;2.20;;
18544;SDS011;9402;51.460;7.276;2022-07-29T00:26:29;1.80;;;1.10;;
18544;SDS011;9402;51.460;7.276;2022-07-29T00:28:32;6.73;;;1.07;;
18544;SDS011;9402;51.460;7.276;2022-07-29T00:30:34;4.50;;;1.10;;
18544;SDS011;9402;51.460;7.276;2022-07-29T00:32:38;5.40;;;1.00;;
18544;SDS011;9402;51.460;7.276;2022-07-29T00:34:40;5.50;;;1.37;;
18544;SDS011;9402;51.460;7.276;2022-07-29T00:37:00;4.63;;;1.23;;
18544;SDS011;9402;51.460;7.276;2022-07-29T00:39:03;2.03;;;1.00;;
18544;SDS011;9402;51.460;7.276;2022-07-29T00:41:05;3.47;;;1.53;;
18544;SDS011;9402;51.460;7.276;2022-07-29T00:43:07;3.67;;;1.57;;
18544;SDS011;9402;51.460;7.276;2022-07-29T00:45:10;3.70;;;1.10;;
18544;SDS011;9402;51.460;7.276;2022-07-29T00:47:13;7.00;;;1.40;;
18544;SDS011;9402;51.460;7.276;2022-07-29T00:49:17;1.47;;;1.00;;
18544;SDS011;9402;51.460;7.276;2022-07-29T00:51:19;8.10;;;1.43;;
18544;SDS011;9402;51.460;7.276;2022-07-29T00:53:21;4.73;;;1.10;;
18544;SDS011;9402;51.460;7.276;2022-07-29T00:55:24;2.37;;;1.00;;
18544;SDS011;9402;51.460;7.276;2022-07-29T00:57:27;8.60;;;1.40;;
18544;SDS011;9402;51.460;7.276;2022-07-29T00:59:29;3.10;;;0.90;;
18544;SDS011;9402;51.460;7.276;2022-07-29T01:01:32;3.30;;;1.20;;
18544;SDS011;9402;51.460;7.276;2022-07-29T01:03:34;3.43;;;1.20;;
18544;SDS011;9402;51.460;7.276;2022-07-29T01:05:38;11.33;;;1.00;;
18544;SDS011;9402;51.460;7.276;2022-07-29T01:07:42;7.37;;;1.00;;
18544;SDS011;9402;51.460;7.276;2022-07-29T01:09:44;2.60;;;1.00;;
18544;SDS011;9402;51.460;7.276;2022-07-29T01:11:47;4.90;;;1.50;;
18544;SDS011;9402;51.460;7.276;2022-07-29T01:13:50;1.33;;;1.00;;
18544;SDS011;9402;51.460;7.276;2022-07-29T01:15:54;2.60;;;1.00;;
18544;SDS011;9402;51.460;7.276;2022-07-29T01:18:01;4.80;;;1.77;;
18544;SDS011;9402;51.460;7.276;2022-07-29T01:20:10;1.57;;;1.20;;
18544;SDS011;9402;51.460;7.276;2022-07-29T01:22:27;2.90;;;1.40;;
18544;SDS011;9402;51.460;7.276;2022-07-29T01:24:46;2.53;;;1.33;;
18544;SDS011;9402;51.460;7.276;2022-07-29T01:27:04;2.80;;;1.23;;
18544;SDS011;9402;51.460;7.276;2022-07-29T01:29:21;4.07;;;1.20;;
18544;SDS011;9402;51.460;7.276;2022-07-29T01:31:27;1.57;;;0.90;;
18544;SDS011;9402;51.460;7.276;2022-07-29T01:33:34;3.07;;;1.20;;
18544;SDS011;9402;51.460;7.276;2022-07-29T01:35:51;4.60;;;1.30;;
18544;SDS011;9402;51.460;7.276;2022-07-29T01:37:55;2.90;;;1.53;;
18544;SDS011;9402;51.460;7.276;2022-07-29T01:40:02;4.13;;;1.50;;
18544;SDS011;9402;51.460;7.276;2022-07-29T01:42:08;2.40;;;1.00;;
18544;SDS011;9402;51.460;7.276;2022-07-29T01:44:15;2.10;;;1.10;;
18544;SDS011;9402;51.460;7.276;2022-07-29T01:46:24;1.93;;;1.20;;
18544;SDS011;9402;51.460;7.276;2022-07-29T01:48:31;5.20;;;1.10;;
18544;SDS011;9402;51.460;7.276;2022-07-29T01:50:37;2.57;;;1.00;;
18544;SDS011;9402;51.460;7.276;2022-07-29T01:52:45;16.03;;;1.53;;
18544;SDS011;9402;51.460;7.276;2022-07-29T01:54:52;4.40;;;1.10;;
18544;SDS011;9402;51.460;7.276;2022-07-29T01:56:56;4.87;;;1.20;;
18544;SDS011;9402;51.460;7.276;2022-07-29T01:58:59;1.63;;;1.20;;
18544;SDS011;9402;51.460;7.276;2022-07-29T02:01:03;3.27;;;1.80;;
18544;SDS011;9402;51.460;7.276;2022-07-29T02:03:09;8.77;;;1.60;;
18544;SDS011;9402;51.460;7.276;2022-07-29T02:05:13;5.20;;;1.70;;
18544;SDS011;9402;51.460;7.276;2022-07-29T02:07:17;1.50;;;1.10;;
18544;SDS011;9402;51.460;7.276;2022-07-29T02:09:20;2.00;;;1.43;;
18544;SDS011;9402;51.460;7.276;2022-07-29T02:11:23;3.13;;;1.30;;
18544;SDS011;9402;51.460;7.276;2022-07-29T02:13:26;1.93;;;1.17;;
18544;SDS011;9402;51.460;7.276;2022-07-29T02:15:30;11.23;;;1.00;;
18544;SDS011;9402;51.460;7.276;2022-07-29T02:17:35;6.10;;;1.03;;
18544;SDS011;9402;51.460;7.276;2022-07-29T02:19:44;1.30;;;1.00;;
18544;SDS011;9402;51.460;7.276;2022-07-29T02:21:46;5.43;;;1.30;;
18544;SDS011;9402;51.460;7.276;2022-07-29T02:23:49;4.40;;;0.97;;
18544;SDS011;9402;51.460;7.276;2022-07-29T02:25:54;9.27;;;0.90;;
18544;SDS011;9402;51.460;7.276;2022-07-29T02:27:57;2.60;;;1.20;;
18544;SDS011;9402;51.460;7.276;2022-07-29T02:30:02;14.63;;;1.40;;
18544;SDS011;9402;51.460;7.276;2022-07-29T02:32:06;2.17;;;1.10;;
18544;SDS011;9402;51.460;7.276;2022-07-29T02:34:09;3.57;;;0.80;;
18544;SDS011;9402;51.460;7.276;2022-07-29T02:36:14;1.63;;;1.00;;
18544;SDS011;9402;51.460;7.276;2022-07-29T02:38:18;4.97;;;1.60;;
18544;SDS011;9402;51.460;7.276;2022-07-29T02:40:39;5.37;;;1.27;;
18544;SDS011;9402;51.460;7.276;2022-07-29T02:42:44;5.60;;;1.10;;
18544;SDS011;9402;51.460;7.276;2022-07-29T02:44:48;3.93;;;2.87;;
18544;SDS011;9402;51.460;7.276;2022-07-29T02:46:52;9.43;;;1.73;;
18544;SDS011;9402;51.460;7.276;2022-07-29T02:48:58;3.03;;;1.10;;
18544;SDS011;9402;51.460;7.276;2022-07-29T02:51:05;4.03;;;1.20;;
18544;SDS011;9402;51.460;7.276;2022-07-29T02:53:14;4.50;;;1.63;;
18544;SDS011;9402;51.460;7.276;2022-07-29T02:55:19;1.40;;;1.23;;
18544;SDS011;9402;51.460;7.276;2022-07-29T02:57:29;4.30;;;1.10;;
18544;SDS011;9402;51.460;7.276;2022-07-29T02:59:34;2.03;;;0.93;;
18544;SDS011;9402;51.460;7.276;2022-07-29T03:01:39;3.43;;;1.20;;
18544;SDS011;9402;51.460;7.276;2022-07-29T03:03:44;1.67;;;0.90;;
18544;SDS011;9402;51.460;7.276;2022-07-29T03:05:47;3.57;;;1.10;;
18544;SDS011;9402;51.460;7.276;2022-07-29T03:07:51;6.07;;;1.33;;
18544;SDS011;9402;51.460;7.276;2022-07-29T03:09:57;1.90;;;1.30;;
18544;SDS011;9402;51.460;7.276;2022-07-29T03:12:00;2.03;;;0.90;;
18544;SDS011;9402;51.460;7.276;2022-07-29T03:14:04;2.90;;;0.90;;
18544;SDS011;9402;51.460;7.276;2022-07-29T03:16:06;4.70;;;1.10;;
18544;SDS011;9402;51.460;7.276;2022-07-29T03:18:09;3.60;;;1.60;;
18544;SDS011;9402;51.460;7.276;2022-07-29T03:20:12;3.40;;;1.50;;
18544;SDS011;9402;51.460;7.276;2022-07-29T03:22:14;4.13;;;1.00;;
18544;SDS011;9402;51.460;7.276;2022-07-29T03:24:27;3.43;;;1.20;;
18544;SDS011;9402;51.460;7.276;2022-07-29T03:26:32;5.73;;;1.07;;
18544;SDS011;9402;51.460;7.276;2022-07-29T03:28:34;2.43;;;1.20;;
18544;SDS011;9402;51.460;7.276;2022-07-29T03:30:37;5.13;;;1.20;;
18544;SDS011;9402;51.460;7.276;2022-07-29T03:32:39;4.00;;;1.57;;
18544;SDS011;9402;51.460;7.276;2022-07-29T03:34:42;1.73;;;1.00;;
18544;SDS011;9402;51.460;7.276;2022-07-29T03:36:44;4.13;;;1.10;;
18544;SDS011;9402;51.460;7.276;2022-07-29T03:38:47;2.10;;;1.20;;
18544;SDS011;9402;51.460;7.276;2022-07-29T03:40:51;1.87;;;1.17;;
18544;SDS011;9402;51.460;7.276;2022-07-29T03:42:57;8.03;;;1.43;;
18544;SDS011;9402;51.460;7.276;2022-07-29T03:45:01;2.43;;;1.63;;
18544;SDS011;9402;51.460;7.276;2022-07-29T03:47:07;3.63;;;0.90;;
18544;SDS011;9402;51.460;7.276;2022-07-29T03:49:10;3.03;;;1.27;;
18544;SDS011;9402;51.460;7.276;2022-07-29T03:51:13;1.67;;;0.93;;
18544;SDS011;9402;51.460;7.276;2022-07-29T03:53:15;6.23;;;1.47;;
18544;SDS011;9402;51.460;7.276;2022-07-29T03:55:18;2.20;;;1.20;;
18544;SDS011;9402;51.460;7.276;2022-07-29T03:57:22;5.67;;;1.47;;
18544;SDS011;9402;51.460;7.276;2022-07-29T03:59:28;3.63;;;1.10;;
18544;SDS011;9402;51.460;7.276;2022-07-29T04:01:33;1.73;;;1.13;;
18544;SDS011;9402;51.460;7.276;2022-07-29T04:03:36;2.80;;;1.37;;
18544;SDS011;9402;51.460;7.276;2022-07-29T04:05:39;6.17;;;1.03;;
18544;SDS011;9402;51.460;7.276;2022-07-29T04:07:43;5.30;;;1.60;;
18544;SDS011;9402;51.460;7.276;2022-07-29T04:09:45;7.80;;;1.63;;
18544;SDS011;9402;51.460;7.276;2022-07-29T04:11:48;4.67;;;1.60;;
18544;SDS011;9402;51.460;7.276;2022-07-29T04:13:50;12.03;;;1.30;;
18544;SDS011;9402;51.460;7.276;2022-07-29T04:15:54;2.40;;;1.27;;
18544;SDS011;9402;51.460;7.276;2022-07-29T04:17:56;1.47;;;0.93;;
18544;SDS011;9402;51.460;7.276;2022-07-29T04:19:59;7.07;;;0.93;;
18544;SDS011;9402;51.460;7.276;2022-07-29T04:22:01;2.97;;;1.43;;
18544;SDS011;9402;51.460;7.276;2022-07-29T04:24:04;5.87;;;1.23;;
18544;SDS011;9402;51.460;7.276;2022-07-29T04:26:07;5.33;;;1.97;;
18544;SDS011;9402;51.460;7.276;2022-07-29T04:28:09;2.97;;;1.30;;
18544;SDS011;9402;51.460;7.276;2022-07-29T04:30:12;7.97;;;1.57;;
18544;SDS011;9402;51.460;7.276;2022-07-29T04:32:15;3.73;;;1.53;;
18544;SDS011;9402;51.460;7.276;2022-07-29T04:34:18;2.80;;;1.13;;
18544;SDS011;9402;51.460;7.276;2022-07-29T04:36:20;10.50;;;2.30;;
18544;SDS011;9402;51.460;7.276;2022-07-29T04:38:22;2.40;;;1.47;;
18544;SDS011;9402;51.460;7.276;2022-07-29T04:40:25;3.40;;;1.43;;
18544;SDS011;9402;51.460;7.276;2022-07-29T04:42:27;4.83;;;1.53;;
18544;SDS011;9402;51.460;7.276;2022-07-29T04:44:30;5.90;;;1.57;;
18544;SDS011;9402;51.460;7.276;2022-07-29T04:46:32;2.23;;;1.30;;
18544;SDS011;9402;51.460;7.276;2022-07-29T04:48:36;3.03;;;1.00;;
18544;SDS011;9402;51.460;7.276;2022-07-29T04:50:38;2.63;;;1.30;;
18544;SDS011;9402;51.460;7.276;2022-07-29T04:52:40;2.30;;;1.20;;
18544;SDS011;9402;51.460;7.276;2022-07-29T04:54:43;5.07;;;1.20;;
18544;SDS011;9402;51.460;7.276;2022-07-29T04:56:45;5.30;;;2.70;;
18544;SDS011;9402;51.460;7.276;2022-07-29T04:58:47;4.50;;;1.50;;
18544;SDS011;9402;51.460;7.276;2022-07-29T05:00:50;1.47;;;1.17;;
18544;SDS011;9402;51.460;7.276;2022-07-29T05:02:52;6.90;;;1.70;;
18544;SDS011;9402;51.460;7.276;2022-07-29T05:04:56;1.60;;;1.00;;
18544;SDS011;9402;51.460;7.276;2022-07-29T05:06:58;3.33;;;1.40;;
18544;SDS011;9402;51.460;7.276;2022-07-29T05:09:01;4.70;;;1.47;;
18544;SDS011;9402;51.460;7.276;2022-07-29T05:11:03;4.93;;;1.50;;
18544;SDS011;9402;51.460;7.276;2022-07-29T05:13:06;5.87;;;1.43;;
18544;SDS011;9402;51.460;7.276;2022-07-29T05:15:09;5.53;;;1.77;;
18544;SDS011;9402;51.460;7.276;2022-07-29T05:17:11;3.30;;;1.37;;
18544;SDS011;9402;51.460;7.276;2022-07-29T05:19:14;5.77;;;1.50;;
18544;SDS011;9402;51.460;7.276;2022-07-29T05:21:17;1.50;;;1.10;;
18544;SDS011;9402;51.460;7.276;2022-07-29T05:23:20;7.73;;;1.80;;
18544;SDS011;9402;51.460;7.276;2022-07-29T05:25:22;5.43;;;1.60;;
18544;SDS011;9402;51.460;7.276;2022-07-29T05:27:24;3.50;;;1.20;;
18544;SDS011;9402;51.460;7.276;2022-07-29T05:29:27;5.00;;;1.57;;
18544;SDS011;9402;51.460;7.276;2022-07-29T05:31:29;2.80;;;1.77;;
18544;SDS011;9402;51.460;7.276;2022-07-29T05:33:31;6.30;;;1.60;;
18544;SDS011;9402;51.460;7.276;2022-07-29T05:35:34;3.00;;;1.20;;
18544;SDS011;9402;51.460;7.276;2022-07-29T05:37:38;8.40;;;1.87;;
18544;SDS011;9402;51.460;7.276;2022-07-29T05:39:40;3.83;;;1.50;;
18544;SDS011;9402;51.460;7.276;2022-07-29T05:41:43;4.80;;;1.40;;
18544;SDS011;9402;51.460;7.276;2022-07-29T05:43:45;5.33;;;1.57;;
18544;SDS011;9402;51.460;7.276;2022-07-29T05:45:47;1.60;;;1.47;;
18544;SDS011;9402;51.460;7.276;2022-07-29T05:47:50;3.33;;;2.03;;
18544;SDS011;9402;51.460;7.276;2022-07-29T05:49:52;2.53;;;1.27;;
18544;SDS011;9402;51.460;7.276;2022-07-29T05:51:55;1.80;;;1.20;;
18544;SDS011;9402;51.460;7.276;2022-07-29T05:53:59;5.73;;;1.80;;
18544;SDS011;9402;51.460;7.276;2022-07-29T05:56:02;1.90;;;0.80;;
18544;SDS011;9402;51.460;7.276;2022-07-29T05:58:05;2.73;;;1.17;;
18544;SDS011;9402;51.460;7.276;2022-07-29T06:00:08;4.80;;;1.90;;
18544;SDS011;9402;51.460;7.276;2022-07-29T06:02:11;3.33;;;1.20;;
18544;SDS011;9402;51.460;7.276;2022-07-29T06:04:14;2.30;;;1.57;;
18544;SDS011;9402;51.460;7.276;2022-07-29T06:06:16;2.03;;;1.40;;
18544;SDS011;9402;51.460;7.276;2022-07-29T06:08:18;1.97;;;1.07;;
18544;SDS011;9402;51.460;7.276;2022-07-29T06:10:22;3.97;;;1.50;;
18544;SDS011;9402;51.460;7.276;2022-07-29T06:12:25;4.80;;;1.57;;
18544;SDS011;9402;51.460;7.276;2022-07-29T06:14:27;2.70;;;1.60;;
18544;SDS011;9402;51.460;7.276;2022-07-29T06:16:30;5.80;;;1.87;;
18544;SDS011;9402;51.460;7.276;2022-07-29T06:18:32;4.67;;;1.53;;
18544;SDS011;9402;51.460;7.276;2022-07-29T06:20:35;3.40;;;1.40;;
18544;SDS011;9402;51.460;7.276;2022-07-29T06:22:37;2.60;;;1.43;;
18544;SDS011;9402;51.460;7.276;2022-07-29T06:24:39;3.87;;;1.83;;
18544;SDS011;9402;51.460;7.276;2022-07-29T06:26:45;5.10;;;1.90;;
18544;SDS011;9402;51.460;7.276;2022-07-29T06:28:47;2.37;;;1.30;;
18544;SDS011;9402;51.460;7.276;2022-07-29T06:30:50;2.40;;;1.43;;
18544;SDS011;9402;51.460;7.276;2022-07-29T06:32:52;6.87;;;1.53;;
18544;SDS011;9402;51.460;7.276;2022-07-29T06:34:54;3.93;;;1.70;;
18544;SDS011;9402;51.460;7.276;2022-07-29T06:36:57;3.03;;;1.40;;
18544;SDS011;9402;51.460;7.276;2022-07-29T06:38:59;4.17;;;1.93;;
18544;SDS011;9402;51.460;7.276;2022-07-29T06:41:01;5.10;;;2.10;;
18544;SDS011;9402;51.460;7.276;2022-07-29T06:43:05;4.53;;;1.40;;
18544;SDS011;9402;51.460;7.276;2022-07-29T06:45:08;3.00;;;1.10;;
18544;SDS011;9402;51.460;7.276;2022-07-29T06:47:11;5.93;;;2.00;;
18544;SDS011;9402;51.460;7.276;2022-07-29T06:49:13;6.60;;;1.63;;
18544;SDS011;9402;51.460;7.276;2022-07-29T06:51:16;2.67;;;1.20;;
18544;SDS011;9402;51.460;7.276;2022-07-29T06:53:18;4.63;;;1.43;;
18544;SDS011;9402;51.460;7.276;2022-07-29T06:55:21;3.97;;;1.50;;
18544;SDS011;9402;51.460;7.276;2022-07-29T06:57:24;1.80;;;1.30;;
18544;SDS011;9402;51.460;7.276;2022-07-29T06:59:28;8.00;;;1.67;;
18544;SDS011;9402;51.460;7.276;2022-07-29T07:01:31;7.13;;;1.63;;
18544;SDS011;9402;51.460;7.276;2022-07-29T07:03:33;1.90;;;1.40;;
18544;SDS011;9402;51.460;7.276;2022-07-29T07:05:35;4.10;;;1.80;;
18544;SDS011;9402;51.460;7.276;2022-07-29T07:07:38;3.67;;;1.50;;
18544;SDS011;9402;51.460;7.276;2022-07-29T07:09:41;4.13;;;1.83;;
18544;SDS011;9402;51.460;7.276;2022-07-29T07:11:43;3.90;;;1.67;;
18544;SDS011;9402;51.460;7.276;2022-07-29T07:13:45;3.27;;;1.80;;
18544;SDS011;9402;51.460;7.276;2022-07-29T07:15:49;3.63;;;1.93;;
18544;SDS011;9402;51.460;7.276;2022-07-29T07:17:52;8.00;;;1.70;;
18544;SDS011;9402;51.460;7.276;2022-07-29T07:19:55;4.27;;;1.67;;
18544;SDS011;9402;51.460;7.276;2022-07-29T07:21:57;5.87;;;1.80;;
18544;SDS011;9402;51.460;7.276;2022-07-29T07:24:00;3.23;;;1.60;;
18544;SDS011;9402;51.460;7.276;2022-07-29T07:26:02;5.10;;;2.63;;
18544;SDS011;9402;51.460;7.276;2022-07-29T07:28:05;1.90;;;1.60;;
18544;SDS011;9402;51.460;7.276;2022-07-29T07:30:08;4.00;;;1.90;;
18544;SDS011;9402;51.460;7.276;2022-07-29T07:32:12;5.90;;;2.17;;
18544;SDS011;9402;51.460;7.276;2022-07-29T07:34:16;3.10;;;1.53;;
18544;SDS011;9402;51.460;7.276;2022-07-29T07:36:18;4.73;;;1.50;;
18544;SDS011;9402;51.460;7.276;2022-07-29T07:38:21;5.40;;;1.50;;
18544;SDS011;9402;51.460;7.276;2022-07-29T07:40:23;4.90;;;1.60;;
18544;SDS011;9402;51.460;7.276;2022-07-29T07:42:26;6.07;;;1.50;;
18544;SDS011;9402;51.460;7.276;2022-07-29T07:44:29;5.60;;;1.93;;
18544;SDS011;9402;51.460;7.276;2022-07-29T07:46:31;6.17;;;1.90;;
18544;SDS011;9402;51.460;7.276;2022-07-29T07:48:35;2.30;;;1.50;;
18544;SDS011;9402;51.460;7.276;2022-07-29T07:50:37;3.20;;;1.80;;
18544;SDS011;9402;51.460;7.276;2022-07-29T07:52:47;4.70;;;1.60;;
18544;SDS011;9402;51.460;7.276;2022-07-29T07:54:50;4.00;;;2.50;;
18544;SDS011;9402;51.460;7.276;2022-07-29T07:56:53;5.13;;;1.80;;
18544;SDS011;9402;51.460;7.276;2022-07-29T07:58:55;7.10;;;1.57;;
18544;SDS011;9402;51.460;7.276;2022-07-29T08:00:58;6.10;;;1.70;;
18544;SDS011;9402;51.460;7.276;2022-07-29T08:03:00;2.43;;;1.80;;
18544;SDS011;9402;51.460;7.276;2022-07-29T08:05:05;12.17;;;1.93;;
18544;SDS011;9402;51.460;7.276;2022-07-29T08:07:08;4.60;;;1.87;;
18544;SDS011;9402;51.460;7.276;2022-07-29T08:09:10;3.93;;;1.33;;
18544;SDS011;9402;51.460;7.276;2022-07-29T08:11:12;2.27;;;1.50;;
18544;SDS011;9402;51.460;7.276;2022-07-29T08:13:15;3.17;;;1.77;;
18544;SDS011;9402;51.460;7.276;2022-07-29T08:15:17;2.30;;;1.70;;
18544;SDS011;9402;51.460;7.276;2022-07-29T08:17:19;7.50;;;2.30;;
18544;SDS011;9402;51.460;7.276;2022-07-29T08:19:22;4.57;;;1.70;;
18544;SDS011;9402;51.460;7.276;2022-07-29T08:21:25;11.50;;;2.13;;
18544;SDS011;9402;51.460;7.276;2022-07-29T08:23:28;3.87;;;1.67;;
18544;SDS011;9402;51.460;7.276;2022-07-29T08:25:38;6.83;;;3.57;;
18544;SDS011;9402;51.460;7.276;2022-07-29T08:27:40;5.90;;;1.97;;
18544;SDS011;9402;51.460;7.276;2022-07-29T08:29:42;3.80;;;1.50;;
18544;SDS011;9402;51.460;7.276;2022-07-29T08:31:45;4.60;;;1.83;;
18544;SDS011;9402;51.460;7.276;2022-07-29T08:33:47;2.47;;;1.70;;
18544;SDS011;9402;51.460;7.276;2022-07-29T08:35:49;7.17;;;1.80;;
18544;SDS011;9402;51.460;7.276;2022-07-29T08:37:53;5.80;;;1.60;;
18544;SDS011;9402;51.460;7.276;2022-07-29T08:39:56;12.43;;;1.60;;
18544;SDS011;9402;51.460;7.276;2022-07-29T08:41:59;3.93;;;1.50;;
18544;SDS011;9402;51.460;7.276;2022-07-29T08:44:01;3.60;;;1.60;;
18544;SDS011;9402;51.460;7.276;2022-07-29T08:46:04;4.17;;;1.57;;
18544;SDS011;9402;51.460;7.276;2022-07-29T08:48:06;2.70;;;1.43;;
18544;SDS011;9402;51.460;7.276;2022-07-29T08:50:09;3.23;;;1.90;;
18544;SDS011;9402;51.460;7.276;2022-07-29T08:52:13;4.40;;;1.53;;
18544;SDS011;9402;51.460;7.276;2022-07-29T08:54:18;4.60;;;1.80;;
18544;SDS011;9402;51.460;7.276;2022-07-29T08:56:22;5.60;;;1.93;;
18544;SDS011;9402;51.460;7.276;2022-07-29T08:58:25;8.37;;;1.90;;
18544;SDS011;9402;51.460;7.276;2022-07-29T09:00:28;7.40;;;2.13;;
18544;SDS011;9402;51.460;7.276;2022-07-29T09:02:33;3.83;;;1.40;;
18544;SDS011;9402;51.460;7.276;2022-07-29T09:04:40;2.53;;;1.30;;
18544;SDS011;9402;51.460;7.276;2022-07-29T09:06:43;4.07;;;2.03;;
18544;SDS011;9402;51.460;7.276;2022-07-29T09:08:46;3.93;;;2.00;;
18544;SDS011;9402;51.460;7.276;2022-07-29T09:10:50;4.00;;;1.60;;
18544;SDS011;9402;51.460;7.276;2022-07-29T09:12:54;3.57;;;1.50;;
18544;SDS011;9402;51.460;7.276;2022-07-29T09:14:56;8.83;;;1.77;;
18544;SDS011;9402;51.460;7.276;2022-07-29T09:16:59;9.47;;;1.67;;
18544;SDS011;9402;51.460;7.276;2022-07-29T09:19:01;2.47;;;1.43;;
18544;SDS011;9402;51.460;7.276;2022-07-29T09:21:04;2.63;;;1.50;;
18544;SDS011;9402;51.460;7.276;2022-07-29T09:23:24;4.37;;;2.03;;
18544;SDS011;9402;51.460;7.276;2022-07-29T09:25:33;11.73;;;1.83;;
18544;SDS011;9402;51.460;7.276;2022-07-29T09:27:37;9.07;;;1.90;;
18544;SDS011;9402;51.460;7.276;2022-07-29T09:29:40;17.73;;;2.27;;
18544;SDS011;9402;51.460;7.276;2022-07-29T09:31:42;4.27;;;1.37;;
18544;SDS011;9402;51.460;7.276;2022-07-29T09:33:45;2.63;;;1.63;;
18544;SDS011;9402;51.460;7.276;2022-07-29T09:35:58;6.30;;;2.30;;
18544;SDS011;9402;51.460;7.276;2022-07-29T09:38:09;3.33;;;1.40;;
18544;SDS011;9402;51.460;7.276;2022-07-29T09:40:13;5.17;;;1.73;;
18544;SDS011;9402;51.460;7.276;2022-07-29T09:42:16;8.50;;;2.63;;
18544;SDS011;9402;51.460;7.276;2022-07-29T09:44:41;4.70;;;1.83;;
18544;SDS011;9402;51.460;7.276;2022-07-29T09:49:06;4.00;;;1.90;;
18544;SDS011;9402;51.460;7.276;2022-07-29T09:51:16;9.00;;;2.23;;
18544;SDS011;9402;51.460;7.276;2022-07-29T09:53:32;10.63;;;1.80;;
18544;SDS011;9402;51.460;7.276;2022-07-29T09:55:45;7.23;;;2.03;;
18544;SDS011;9402;51.460;7.276;2022-07-29T09:57:49;1.77;;;1.67;;
18544;SDS011;9402;51.460;7.276;2022-07-29T09:59:57;6.57;;;1.83;;
18544;SDS011;9402;51.460;7.276;2022-07-29T10:02:00;3.30;;;1.93;;
18544;SDS011;9402;51.460;7.276;2022-07-29T10:04:02;6.90;;;2.70;;
18544;SDS011;9402;51.460;7.276;2022-07-29T10:06:05;3.30;;;2.00;;
18544;SDS011;9402;51.460;7.276;2022-07-29T10:08:09;8.10;;;2.90;;
18544;SDS011;9402;51.460;7.276;2022-07-29T10:10:17;4.23;;;1.80;;
18544;SDS011;9402;51.460;7.276;2022-07-29T10:12:22;16.43;;;2.50;;
18544;SDS011;9402;51.460;7.276;2022-07-29T10:14:24;5.57;;;2.87;;
18544;SDS011;9402;51.460;7.276;2022-07-29T10:16:28;7.73;;;1.70;;
18544;SDS011;9402;51.460;7.276;2022-07-29T10:18:33;4.47;;;2.40;;
18544;SDS011;9402;51.460;7.276;2022-07-29T10:20:36;3.13;;;2.07;;
18544;SDS011;9402;51.460;7.276;2022-07-29T10:22:39;5.27;;;2.10;;
18544;SDS011;9402;51.460;7.276;2022-07-29T10:24:41;3.40;;;2.13;;
18544;SDS011;9402;51.460;7.276;2022-07-29T10:26:44;2.70;;;2.10;;
18544;SDS011;9402;51.460;7.276;2022-07-29T10:28:47;10.13;;;2.47;;
18544;SDS011;9402;51.460;7.276;2022-07-29T10:30:50;6.00;;;2.40;;
18544;SDS011;9402;51.460;7.276;2022-07-29T10:35:33;5.20;;;1.70;;
18544;SDS011;9402;51.460;7.276;2022-07-29T10:37:55;5.67;;;1.90;;
18544;SDS011;9402;51.460;7.276;2022-07-29T10:40:10;4.07;;;2.13;;
18544;SDS011;9402;51.460;7.276;2022-07-29T10:42:35;6.70;;;2.53;;
18544;SDS011;9402;51.460;7.276;2022-07-29T10:44:42;5.40;;;2.40;;
18544;SDS011;9402;51.460;7.276;2022-07-29T10:46:45;3.50;;;2.37;;
18544;SDS011;9402;51.460;7.276;2022-07-29T10:49:08;2.83;;;1.93;;
18544;SDS011;9402;51.460;7.276;2022-07-29T10:51:12;4.63;;;2.40;;
18544;SDS011;9402;51.460;7.276;2022-07-29T10:53:14;8.10;;;2.00;;
18544;SDS011;9402;51.460;7.276;2022-07-29T10:55:30;24.93;;;3.20;;
18544;SDS011;9402;51.460;7.276;2022-07-29T10:57:33;10.20;;;3.60;;
18544;SDS011;9402;51.460;7.276;2022-07-29T10:59:37;3.90;;;2.30;;
18544;SDS011;9402;51.460;7.276;2022-07-29T11:01:39;9.60;;;2.93;;
18544;SDS011;9402;51.460;7.276;2022-07-29T11:03:42;5.13;;;2.20;;
18544;SDS011;9402;51.460;7.276;2022-07-29T11:05:55;4.47;;;2.30;;
18544;SDS011;9402;51.460;7.276;2022-07-29T11:08:16;4.77;;;2.40;;
18544;SDS011;9402;51.460;7.276;2022-07-29T11:10:24;6.60;;;2.23;;
18544;SDS011;9402;51.460;7.276;2022-07-29T11:14:57;4.40;;;2.97;;
18544;SDS011;9402;51.460;7.276;2022-07-29T11:17:02;4.50;;;3.00;;
18544;SDS011;9402;51.460;7.276;2022-07-29T11:19:21;6.50;;;2.40;;
18544;SDS011;9402;51.460;7.276;2022-07-29T11:21:36;4.47;;;1.83;;
18544;SDS011;9402;51.460;7.276;2022-07-29T11:23:39;5.13;;;2.27;;
18544;SDS011;9402;51.460;7.276;2022-07-29T11:25:43;9.23;;;2.70;;
18544;SDS011;9402;51.460;7.276;2022-07-29T11:27:45;5.53;;;2.60;;
18544;SDS011;9402;51.460;7.276;2022-07-29T11:29:49;9.13;;;2.37;;
18544;SDS011;9402;51.460;7.276;2022-07-29T11:31:53;3.00;;;2.10;;
18544;SDS011;9402;51.460;7.276;2022-07-29T11:34:20;4.30;;;2.10;;
18544;SDS011;9402;51.460;7.276;2022-07-29T11:36:23;8.93;;;2.50;;
18544;SDS011;9402;51.460;7.276;2022-07-29T11:38:27;4.13;;;2.27;;
18544;SDS011;9402;51.460;7.276;2022-07-29T11:40:30;9.23;;;2.33;;
18544;SDS011;9402;51.460;7.276;2022-07-29T11:42:36;7.40;;;2.27;;
18544;SDS011;9402;51.460;7.276;2022-07-29T11:44:53;9.20;;;2.20;;
18544;SDS011;9402;51.460;7.276;2022-07-29T11:46:56;7.17;;;2.50;;
18544;SDS011;9402;51.460;7.276;2022-07-29T11:48:59;5.77;;;3.30;;
18544;SDS011;9402;51.460;7.276;2022-07-29T11:51:01;7.47;;;2.77;;
18544;SDS011;9402;51.460;7.276;2022-07-29T11:53:12;6.00;;;2.77;;
18544;SDS011;9402;51.460;7.276;2022-07-29T11:55:17;5.80;;;2.40;;
18544;SDS011;9402;51.460;7.276;2022-07-29T11:57:20;3.37;;;2.80;;
18544;SDS011;9402;51.460;7.276;2022-07-29T11:59:22;5.23;;;2.57;;
18544;SDS011;9402;51.460;7.276;2022-07-29T12:01:27;6.07;;;3.03;;
18544;SDS011;9402;51.460;7.276;2022-07-29T12:03:29;11.20;;;2.50;;
18544;SDS011;9402;51.460;7.276;2022-07-29T12:05:33;8.00;;;2.93;;
18544;SDS011;9402;51.460;7.276;2022-07-29T12:07:37;8.33;;;2.27;;
18544;SDS011;9402;51.460;7.276;2022-07-29T12:09:42;2.90;;;2.40;;
18544;SDS011;9402;51.460;7.276;2022-07-29T12:11:57;4.83;;;2.20;;
18544;SDS011;9402;51.460;7.276;2022-07-29T12:13:59;6.30;;;2.67;;
18544;SDS011;9402;51.460;7.276;2022-07-29T12:16:03;9.90;;;2.40;;
18544;SDS011;9402;51.460;7.276;2022-07-29T12:18:12;4.60;;;2.20;;
18544;SDS011;9402;51.460;7.276;2022-07-29T12:20:21;4.87;;;2.63;;
18544;SDS011;9402;51.460;7.276;2022-07-29T12:22:25;7.90;;;2.23;;
18544;SDS011;9402;51.460;7.276;2022-07-29T12:24:41;3.73;;;2.13;;
18544;SDS011;9402;51.460;7.276;2022-07-29T12:26:50;7.17;;;2.20;;
18544;SDS011;9402;51.460;7.276;2022-07-29T12:28:54;2.47;;;1.90;;
18544;SDS011;9402;51.460;7.276;2022-07-29T12:30:56;10.93;;;2.40;;
18544;SDS011;9402;51.460;7.276;2022-07-29T12:32:59;2.27;;;1.70;;
18544;SDS011;9402;51.460;7.276;2022-07-29T12:35:02;5.70;;;1.83;;
18544;SDS011;9402;51.460;7.276;2022-07-29T12:37:05;4.23;;;2.37;;
18544;SDS011;9402;51.460;7.276;2022-07-29T12:39:09;5.17;;;1.93;;
18544;SDS011;9402;51.460;7.276;2022-07-29T12:41:12;6.97;;;1.90;;
18544;SDS011;9402;51.460;7.276;2022-07-29T12:43:15;6.00;;;2.43;;
18544;SDS011;9402;51.460;7.276;2022-07-29T12:45:27;4.10;;;2.00;;
18544;SDS011;9402;51.460;7.276;2022-07-29T12:47:30;11.73;;;2.20;;
18544;SDS011;9402;51.460;7.276;2022-07-29T12:49:33;14.10;;;2.67;;